createdAt,value
2018-02-09T00:01:11.193Z,252.65
2018-02-09T00:03:39.448Z,215.60
2018-02-09T00:06:08.479Z,201.37
2018-02-09T00:08:36.734Z,202.25
2018-02-09T00:11:04.992Z,156.43
2018-02-09T00:13:34.017Z,177.85
2018-02-09T00:16:02.286Z,176.77
2018-02-09T00:18:30.536Z,166.00
2018-02-09T00:20:58.800Z,161.80
2018-02-09T00:23:27.934Z,133.40
2018-02-09T00:25:56.198Z,166.70
2018-02-09T00:28:24.450Z,176.25
2018-02-09T00:30:53.487Z,177.73
2018-02-09T00:33:21.752Z,184.10
2018-02-09T00:35:50.017Z,159.73
2018-02-09T00:38:18.278Z,177.57
2018-02-09T00:40:47.304Z,167.80
2018-02-09T00:43:15.553Z,202.93
2018-02-09T00:45:43.821Z,193.05
2018-02-09T00:48:12.846Z,192.65
2018-02-09T00:50:41.110Z,207.12
2018-02-09T00:53:09.368Z,224.30
2018-02-09T00:55:38.428Z,205.43
2018-02-09T00:58:06.655Z,210.77
2018-02-09T01:00:34.922Z,176.82
2018-02-09T01:03:03.187Z,147.18
2018-02-09T01:05:32.208Z,150.48
2018-02-09T01:08:00.476Z,170.48
2018-02-09T01:10:28.757Z,176.15
2018-02-09T01:12:57.010Z,178.23
2018-02-09T01:15:26.040Z,162.45
2018-02-09T01:17:54.289Z,158.80
2018-02-09T01:20:22.545Z,171.82
2018-02-09T01:22:51.570Z,170.38
2018-02-09T01:25:19.826Z,148.13
2018-02-09T01:27:48.085Z,141.75
2018-02-09T01:30:17.111Z,136.90
2018-02-09T01:32:45.381Z,153.60
2018-02-09T01:35:13.632Z,167.82
2018-02-09T01:37:42.666Z,164.75
2018-02-09T01:40:10.913Z,172.73
2018-02-09T01:42:39.186Z,152.60
2018-02-09T01:45:08.214Z,178.50
2018-02-09T01:47:36.483Z,193.02
2018-02-09T01:50:16.758Z,175.70
2018-02-09T01:52:45.019Z,124.70
2018-02-09T01:55:13.279Z,125.65
2018-02-09T01:57:41.532Z,132.27
2018-02-09T02:00:10.562Z,149.87
2018-02-09T02:02:38.822Z,163.52
2018-02-09T02:05:07.078Z,178.40
2018-02-09T02:07:36.135Z,177.60
2018-02-09T02:10:04.388Z,172.00
2018-02-09T02:12:32.667Z,199.40
2018-02-09T02:15:00.925Z,182.90
2018-02-09T02:17:29.184Z,216.60
2018-02-09T02:19:57.438Z,233.00
2018-02-09T02:22:25.704Z,221.77
2018-02-09T02:24:53.956Z,228.70
2018-02-09T02:27:22.230Z,209.30
2018-02-09T02:29:50.490Z,228.20
2018-02-09T02:32:18.748Z,219.23
2018-02-09T02:34:47.010Z,202.00
2018-02-09T02:37:15.278Z,173.57
2018-02-09T02:39:44.315Z,162.07
2018-02-09T02:42:12.682Z,146.87
2018-02-09T02:44:40.932Z,112.32
2018-02-09T02:47:09.193Z,90.00
2018-02-09T02:49:38.209Z,90.62
2018-02-09T02:52:06.513Z,108.65
2018-02-09T02:54:34.770Z,81.65
2018-02-09T02:57:03.018Z,87.62
2018-02-09T02:59:32.046Z,108.87
2018-02-09T03:02:00.297Z,91.72
2018-02-09T03:04:28.560Z,88.90
2018-02-09T03:06:57.578Z,89.28
2018-02-09T03:09:25.843Z,84.18
2018-02-09T03:11:54.862Z,80.53
2018-02-09T03:14:23.117Z,83.97
2018-02-09T03:16:51.367Z,94.93
2018-02-09T03:19:20.397Z,94.53
2018-02-09T03:21:48.642Z,99.30
2018-02-09T03:24:17.667Z,96.93
2018-02-09T03:26:45.916Z,93.32
2018-02-09T03:29:14.958Z,99.13
2018-02-09T03:31:43.211Z,104.50
2018-02-09T03:34:11.480Z,97.65
2018-02-09T03:36:39.745Z,93.32
2018-02-09T03:39:08.768Z,100.80
2018-02-09T03:41:37.026Z,111.62
2018-02-09T03:44:05.279Z,113.78
2018-02-09T03:46:34.315Z,127.55
2018-02-09T03:49:02.566Z,117.65
2018-02-09T03:51:30.822Z,94.85
2018-02-09T03:53:59.847Z,106.47
2018-02-09T03:56:28.116Z,110.68
2018-02-09T03:58:56.369Z,104.75
2018-02-09T04:01:25.399Z,102.62
2018-02-09T04:03:53.656Z,101.55
2018-02-09T04:06:21.929Z,104.18
2018-02-09T04:08:50.419Z,100.25
2018-02-09T04:11:18.700Z,103.30
2018-02-09T04:13:46.941Z,96.57
2018-02-09T04:16:15.980Z,97.12
2018-02-09T04:18:44.243Z,89.00
2018-02-09T04:21:12.505Z,90.00
2018-02-09T04:23:40.757Z,98.12
2018-02-09T04:26:09.793Z,91.20
2018-02-09T04:28:38.058Z,99.35
2018-02-09T04:31:06.322Z,102.07
2018-02-09T04:33:34.580Z,94.13
2018-02-09T04:36:03.596Z,98.78
2018-02-09T04:38:31.856Z,85.70
2018-02-09T04:41:00.883Z,97.70
2018-02-09T04:43:29.133Z,94.10
2018-02-09T04:45:57.395Z,100.53
2018-02-09T04:48:26.426Z,103.00
2018-02-09T04:50:54.685Z,100.95
2018-02-09T04:53:22.949Z,102.60
2018-02-09T04:55:51.980Z,98.18
2018-02-09T04:58:20.243Z,106.32
2018-02-09T05:00:48.490Z,92.00
2018-02-09T05:03:17.525Z,91.20
2018-02-09T05:05:45.787Z,106.70
2018-02-09T05:08:14.045Z,91.28
2018-02-09T05:10:42.297Z,97.57
2018-02-09T05:13:11.326Z,87.20
2018-02-09T05:15:39.580Z,101.50
2018-02-09T05:18:08.610Z,99.90
2018-02-09T05:20:36.874Z,101.00
2018-02-09T05:23:05.130Z,99.40
2018-02-09T05:25:33.470Z,103.78
2018-02-09T05:28:01.683Z,111.68
2018-02-09T05:30:29.937Z,98.00
2018-02-09T05:32:58.958Z,90.78
2018-02-09T05:35:27.222Z,101.32
2018-02-09T05:37:56.249Z,84.68
2018-02-09T05:40:24.509Z,80.82
2018-02-09T05:42:52.760Z,76.40
2018-02-09T05:45:21.795Z,70.25
2018-02-09T05:47:50.045Z,80.30
2018-02-09T05:50:18.314Z,85.50
2018-02-09T05:52:46.577Z,73.47
2018-02-09T05:55:15.602Z,78.78
2018-02-09T05:57:43.863Z,90.45
2018-02-09T06:00:12.126Z,85.22
2018-02-09T06:02:41.151Z,85.32
2018-02-09T06:05:09.409Z,101.28
2018-02-09T06:07:37.665Z,93.43
2018-02-09T06:10:06.681Z,93.45
2018-02-09T06:12:34.946Z,106.53
2018-02-09T06:15:03.201Z,98.70
2018-02-09T06:17:32.230Z,104.85
2018-02-09T06:20:00.490Z,100.00
2018-02-09T06:22:28.749Z,99.57
2018-02-09T06:24:57.771Z,108.68
2018-02-09T06:27:26.033Z,90.10
2018-02-09T06:29:54.288Z,105.45
2018-02-09T06:32:22.562Z,103.72
2018-02-09T06:34:52.324Z,113.15
2018-02-09T06:37:20.585Z,106.87
2018-02-09T06:39:48.846Z,107.35
2018-02-09T06:42:17.886Z,112.97
2018-02-09T06:44:46.146Z,96.57
2018-02-09T06:47:14.415Z,104.35
2018-02-09T06:49:42.673Z,108.40
2018-02-09T06:52:10.947Z,103.97
2018-02-09T06:54:39.203Z,113.35
2018-02-09T06:57:08.280Z,105.12
2018-02-09T06:59:36.535Z,116.82
2018-02-09T07:02:04.792Z,112.22
2018-02-09T07:04:33.057Z,120.25
2018-02-09T07:07:01.319Z,108.70
2018-02-09T07:09:29.586Z,97.47
2018-02-09T07:11:58.606Z,105.85
2018-02-09T07:14:26.874Z,118.72
2018-02-09T07:16:55.127Z,93.72
2018-02-09T07:19:24.156Z,97.07
2018-02-09T07:21:52.413Z,113.90
2018-02-09T07:24:20.685Z,97.18
2018-02-09T07:26:48.938Z,110.37
2018-02-09T07:29:17.986Z,103.70
2018-02-09T07:31:46.249Z,105.70
2018-02-09T07:34:14.513Z,91.75
2018-02-09T07:36:42.764Z,94.75
2018-02-09T07:39:11.811Z,85.05
2018-02-09T07:41:40.057Z,94.30
2018-02-09T07:44:08.376Z,82.03
2018-02-09T07:46:36.627Z,91.70
2018-02-09T07:49:04.897Z,96.90
2018-02-09T07:51:33.155Z,84.43
2018-02-09T07:54:01.423Z,99.32
2018-02-09T07:56:29.698Z,94.28
2018-02-09T07:58:57.966Z,105.05
2018-02-09T08:01:26.998Z,97.07
2018-02-09T08:03:55.258Z,97.65
2018-02-09T08:06:23.534Z,89.68
2018-02-09T08:08:52.493Z,97.22
2018-02-09T08:11:21.536Z,97.12
2018-02-09T08:13:49.794Z,112.28
2018-02-09T08:16:18.059Z,97.55
2018-02-09T08:18:46.325Z,101.00
2018-02-09T08:21:15.360Z,99.47
2018-02-09T08:23:43.603Z,93.87
2018-02-09T08:26:11.913Z,96.30
2018-02-09T08:28:40.182Z,92.47
2018-02-09T08:31:08.441Z,108.22
2018-02-09T08:33:36.707Z,83.62
2018-02-09T08:36:04.970Z,90.95
2018-02-09T08:38:34.106Z,101.03
2018-02-09T08:41:02.355Z,99.13
2018-02-09T08:43:30.619Z,99.37
2018-02-09T08:45:59.637Z,106.03
2018-02-09T08:48:27.924Z,110.53
2018-02-09T08:50:56.192Z,114.80
2018-02-09T08:53:24.509Z,112.40
2018-02-09T08:55:52.742Z,114.10
2018-02-09T08:58:21.014Z,121.65
2018-02-09T09:00:49.274Z,97.75
2018-02-09T09:03:17.556Z,100.32
2018-02-09T09:05:45.824Z,111.80
2018-02-09T09:08:14.862Z,98.62
2018-02-09T09:10:43.121Z,96.28
2018-02-09T09:13:11.394Z,103.00
2018-02-09T09:15:39.671Z,103.65
2018-02-09T09:18:07.950Z,94.50
2018-02-09T09:20:36.229Z,90.22
2018-02-09T09:23:04.484Z,93.47
2018-02-09T09:25:32.753Z,104.87
2018-02-09T09:28:01.013Z,95.93
2018-02-09T09:30:30.050Z,102.45
2018-02-09T09:32:58.314Z,92.43
2018-02-09T09:35:26.582Z,85.65
2018-02-09T09:37:54.847Z,96.28
2018-02-09T09:40:23.115Z,99.55
2018-02-09T09:42:52.148Z,116.20
2018-02-09T09:45:20.465Z,104.20
2018-02-09T09:47:48.737Z,102.85
2018-02-09T09:50:17.017Z,96.93
2018-02-09T09:52:45.282Z,110.50
2018-02-09T09:55:13.550Z,98.53
2018-02-09T09:57:41.815Z,109.75
2018-02-09T10:00:10.090Z,99.55
2018-02-09T10:02:40.958Z,97.03
2018-02-09T10:05:09.235Z,103.28
2018-02-09T10:07:37.497Z,97.62
2018-02-09T10:10:05.759Z,110.43
2018-02-09T10:12:34.030Z,107.40
2018-02-09T10:15:02.289Z,99.15
2018-02-09T10:17:30.579Z,114.78
2018-02-09T10:19:58.845Z,116.00
2018-02-09T10:22:27.122Z,101.75
2018-02-09T10:24:55.395Z,96.75
2018-02-09T10:27:23.664Z,115.82
2018-02-09T10:29:51.924Z,94.87
2018-02-09T10:32:20.197Z,102.20
2018-02-09T10:34:48.466Z,98.07
2018-02-09T10:37:16.738Z,106.80
2018-02-09T10:39:45.007Z,105.22
2018-02-09T10:42:14.043Z,92.03
2018-02-09T10:44:42.339Z,107.47
2018-02-09T10:47:10.610Z,110.63
2018-02-09T10:49:38.887Z,107.55
2018-02-09T10:52:07.163Z,102.65
2018-02-09T10:54:35.418Z,101.47
2018-02-09T10:57:03.693Z,102.18
2018-02-09T10:59:31.974Z,112.03
2018-02-09T11:02:00.237Z,89.17
2018-02-09T11:04:28.508Z,107.53
2018-02-09T11:06:56.774Z,102.80
2018-02-09T11:09:30.472Z,107.20
2018-02-09T11:12:01.768Z,125.10
2018-02-09T11:14:30.041Z,130.23
2018-02-09T11:16:58.321Z,121.97
2018-02-09T11:19:26.578Z,123.95
2018-02-09T11:21:54.897Z,123.50
2018-02-09T11:24:23.113Z,125.82
2018-02-09T11:26:51.383Z,126.50
2018-02-09T11:29:19.661Z,124.62
2018-02-09T11:31:47.932Z,125.15
2018-02-09T11:34:16.197Z,121.40
2018-02-09T11:36:44.471Z,131.57
2018-02-09T11:39:13.506Z,125.20
2018-02-09T11:41:41.770Z,117.53
2018-02-09T11:44:10.034Z,119.57
2018-02-09T11:46:38.301Z,119.53
2018-02-09T11:49:06.576Z,120.72
2018-02-09T11:51:34.848Z,109.32
2018-02-09T11:54:03.125Z,123.65
2018-02-09T11:56:32.160Z,113.00
2018-02-09T11:59:00.425Z,117.13
2018-02-09T12:01:28.700Z,112.15
2018-02-09T12:03:56.956Z,106.82
2018-02-09T12:06:25.233Z,102.05
2018-02-09T12:08:53.500Z,108.82
2018-02-09T12:11:21.775Z,106.73
2018-02-09T12:13:50.049Z,118.47
2018-02-09T12:16:19.091Z,114.85
2018-02-09T12:18:47.354Z,99.00
2018-02-09T12:21:15.629Z,100.12
2018-02-09T12:23:43.899Z,106.28
2018-02-09T12:26:12.174Z,104.67
2018-02-09T12:28:40.450Z,100.57
2018-02-09T12:31:08.734Z,94.67
2018-02-09T12:33:36.995Z,108.70
2018-02-09T12:36:05.278Z,89.13
2018-02-09T12:38:33.537Z,89.55
2018-02-09T12:41:01.846Z,103.07
2018-02-09T12:43:30.123Z,104.18
2018-02-09T12:45:58.383Z,93.80
2018-02-09T12:48:26.655Z,89.90
2018-02-09T12:50:54.921Z,103.00
2018-02-09T12:53:23.202Z,101.35
2018-02-09T12:55:51.462Z,100.43
2018-02-09T12:58:19.730Z,96.35
2018-02-09T13:00:48.042Z,96.80
2018-02-09T13:03:16.311Z,91.65
2018-02-09T13:05:44.567Z,106.03
2018-02-09T13:08:12.823Z,90.28
2018-02-09T13:10:41.874Z,91.82
2018-02-09T13:13:11.840Z,89.30
2018-02-09T13:15:40.861Z,88.47
2018-02-09T13:18:09.133Z,94.37
2018-02-09T13:20:37.391Z,90.65
2018-02-09T13:23:23.407Z,102.22
2018-02-09T13:25:51.662Z,90.35
2018-02-09T13:31:27.549Z,96.15
2018-02-09T13:33:55.822Z,95.65
2018-02-09T13:36:41.651Z,95.85
2018-02-09T13:39:09.923Z,95.55
2018-02-09T13:41:38.268Z,116.68
2018-02-09T13:44:06.456Z,106.03
2018-02-09T13:46:34.720Z,88.93
2018-02-09T13:49:02.977Z,110.35
2018-02-09T13:51:31.242Z,87.10
2018-02-09T13:54:00.311Z,105.30
2018-02-09T13:56:28.592Z,84.07
2018-02-09T13:58:56.847Z,83.03
2018-02-09T14:01:25.111Z,101.57
2018-02-09T14:03:53.361Z,97.88
2018-02-09T14:06:21.637Z,103.03
2018-02-09T14:08:50.131Z,98.28
2018-02-09T14:11:18.397Z,116.28
2018-02-09T14:13:46.651Z,93.07
2018-02-09T14:16:14.918Z,106.22
2018-02-09T14:18:43.933Z,105.53
2018-02-09T14:21:12.203Z,92.07
2018-02-09T14:23:40.449Z,90.75
2018-02-09T14:26:09.476Z,85.07
2018-02-09T14:28:37.741Z,106.10
2018-02-09T14:31:05.995Z,99.30
2018-02-09T14:33:35.018Z,99.15
2018-02-09T14:36:03.284Z,91.20
2018-02-09T14:38:32.297Z,92.40
2018-02-09T14:41:00.558Z,88.97
2018-02-09T14:43:28.810Z,104.38
2018-02-09T14:45:57.838Z,85.57
2018-02-09T14:48:26.102Z,92.40
2018-02-09T14:50:54.403Z,93.60
2018-02-09T14:53:22.649Z,89.15
2018-02-09T14:55:50.917Z,96.25
2018-02-09T14:58:19.945Z,84.15
2018-02-09T15:00:48.208Z,73.20
2018-02-09T15:03:16.493Z,80.40
2018-02-09T15:05:44.740Z,87.90
2018-02-09T15:08:13.776Z,98.55
2018-02-09T15:10:42.042Z,89.13
2018-02-09T15:13:10.309Z,79.32
2018-02-09T15:15:38.573Z,102.00
2018-02-09T15:18:07.596Z,85.95
2018-02-09T15:20:35.854Z,90.85
2018-02-09T15:23:04.121Z,104.05
2018-02-09T15:25:32.379Z,91.43
2018-02-09T15:28:01.414Z,108.28
2018-02-09T15:30:29.675Z,96.97
2018-02-09T15:32:57.965Z,88.15
2018-02-09T15:35:26.237Z,95.72
2018-02-09T15:37:54.493Z,89.13
2018-02-09T15:40:22.767Z,88.90
2018-02-09T15:42:51.017Z,92.00
2018-02-09T15:45:20.043Z,86.20
2018-02-09T15:47:48.306Z,61.17
2018-02-09T15:50:16.599Z,78.28
2018-02-09T15:52:44.858Z,105.68
2018-02-09T15:55:13.135Z,95.38
2018-02-09T15:57:41.451Z,90.15
2018-02-09T16:00:09.678Z,84.50
2018-02-09T16:02:38.699Z,85.97
2018-02-09T16:05:06.974Z,62.47
2018-02-09T16:07:35.243Z,91.22
2018-02-09T16:10:03.513Z,97.25
2018-02-09T16:12:31.779Z,94.82
2018-02-09T16:15:00.048Z,102.57
2018-02-09T16:17:29.066Z,94.35
2018-02-09T16:19:57.317Z,86.78
2018-02-09T16:22:26.346Z,79.80
2018-02-09T16:24:54.607Z,97.10
2018-02-09T16:27:22.875Z,84.57
2018-02-09T16:29:51.145Z,89.20
2018-02-09T16:32:19.405Z,88.70
2018-02-09T16:34:48.486Z,90.93
2018-02-09T16:37:16.740Z,101.05
2018-02-09T16:39:45.008Z,88.55
2018-02-09T16:42:13.262Z,80.22
2018-02-09T16:44:41.561Z,90.85
2018-02-09T16:47:09.826Z,91.70
2018-02-09T16:49:38.076Z,99.18
2018-02-09T16:52:06.341Z,91.28
2018-02-09T16:54:34.597Z,97.35
2018-02-09T16:57:02.854Z,93.37
2018-02-09T16:59:31.106Z,87.43
2018-02-09T17:01:59.374Z,94.15
2018-02-09T17:04:27.621Z,81.10
2018-02-09T17:06:55.885Z,93.30
2018-02-09T17:09:24.918Z,113.35
2018-02-09T17:11:53.196Z,92.62
2018-02-09T17:14:21.450Z,91.85
2018-02-09T17:16:49.764Z,92.07
2018-02-09T17:19:18.021Z,85.78
2018-02-09T17:21:46.999Z,91.55
2018-02-09T17:24:15.279Z,101.62
2018-02-09T17:26:43.532Z,94.55
2018-02-09T17:29:12.568Z,85.50
2018-02-09T17:31:40.814Z,97.05
2018-02-09T17:34:09.078Z,90.70
2018-02-09T17:36:37.334Z,91.57
2018-02-09T17:39:06.362Z,84.72
2018-02-09T17:41:34.631Z,84.05
2018-02-09T17:44:02.898Z,80.65
2018-02-09T17:46:31.959Z,97.12
2018-02-09T17:49:00.984Z,52.25
2018-02-09T17:51:30.016Z,77.80
2018-02-09T17:53:58.289Z,88.25
2018-02-09T17:56:26.550Z,91.12
2018-02-09T17:58:54.804Z,100.60
2018-02-09T18:01:23.840Z,93.57
2018-02-09T18:03:52.099Z,104.60
2018-02-09T18:06:20.357Z,89.32
2018-02-09T18:08:48.620Z,109.28
2018-02-09T18:11:17.661Z,95.93
2018-02-09T18:13:45.918Z,92.65
2018-02-09T18:16:14.183Z,101.07
2018-02-09T18:18:42.462Z,98.22
2018-02-09T18:21:10.727Z,108.05
2018-02-09T18:23:39.010Z,100.72
2018-02-09T18:26:07.271Z,100.90
2018-02-09T18:28:36.316Z,113.28
2018-02-09T18:31:04.578Z,128.68
2018-02-09T18:33:32.847Z,109.63
2018-02-09T18:36:01.121Z,109.70
2018-02-09T18:38:29.387Z,123.35
2018-02-09T18:40:57.652Z,122.03
2018-02-09T18:43:25.922Z,132.70
2018-02-09T18:45:54.974Z,108.03
2018-02-09T18:48:23.247Z,107.12
2018-02-09T18:50:51.512Z,116.65
2018-02-09T18:53:19.788Z,105.32
2018-02-09T18:55:48.071Z,103.62
2018-02-09T18:58:16.357Z,105.90
2018-02-09T19:00:44.622Z,104.03
2018-02-09T19:03:12.893Z,106.65
2018-02-09T19:05:41.932Z,106.65
2018-02-09T19:08:10.965Z,103.82
2018-02-09T19:10:39.225Z,96.87
2018-02-09T19:13:07.517Z,99.53
2018-02-09T19:15:35.776Z,92.55
2018-02-09T19:18:04.041Z,88.72
2018-02-09T19:20:32.318Z,95.10
2018-02-09T19:23:00.585Z,133.43
2018-02-09T19:25:29.632Z,107.00
2018-02-09T19:27:57.907Z,112.45
2018-02-09T19:30:26.184Z,128.75
2018-02-09T19:32:54.442Z,103.65
2018-02-09T19:35:22.720Z,107.85
2018-02-09T19:37:50.977Z,88.87
2018-02-09T19:40:19.251Z,100.70
2018-02-09T19:42:47.513Z,99.55
2018-02-09T19:45:16.553Z,98.57
2018-02-09T19:47:44.810Z,102.68
2018-02-09T19:50:13.069Z,96.80
2018-02-09T19:52:41.342Z,110.35
2018-02-09T19:55:09.609Z,103.00
2018-02-09T19:57:37.870Z,101.80
2018-02-09T20:00:06.913Z,93.90
2018-02-09T20:02:35.187Z,117.93
2018-02-09T20:05:03.455Z,101.80
2018-02-09T20:07:31.706Z,82.15
2018-02-09T20:10:00.751Z,111.45
2018-02-09T20:12:29.028Z,95.50
2018-02-09T20:14:57.285Z,93.70
2018-02-09T20:17:25.549Z,100.62
2018-02-09T20:19:53.827Z,104.68
2018-02-09T20:22:22.091Z,97.62
2018-02-09T20:24:50.371Z,107.22
2018-02-09T20:27:18.614Z,92.62
2018-02-09T20:29:47.638Z,110.25
2018-02-09T20:32:15.901Z,107.68
2018-02-09T20:34:44.162Z,95.55
2018-02-09T20:37:13.185Z,90.90
2018-02-09T20:39:41.501Z,100.87
2018-02-09T20:42:09.715Z,98.45
2018-02-09T20:44:38.745Z,94.85
2018-02-09T20:47:07.019Z,100.10
2018-02-09T20:49:35.277Z,93.93
2018-02-09T20:52:03.538Z,100.20
2018-02-09T20:54:32.595Z,112.40
2018-02-09T20:57:00.850Z,99.13
2018-02-09T20:59:29.105Z,99.60
2018-02-09T21:01:57.374Z,97.18
2018-02-09T21:04:25.641Z,102.18
2018-02-09T21:06:54.668Z,95.60
2018-02-09T21:09:22.933Z,98.15
2018-02-09T21:11:51.205Z,90.85
2018-02-09T21:14:19.466Z,102.72
2018-02-09T21:16:47.788Z,103.57
2018-02-09T21:19:16.055Z,115.47
2018-02-09T21:21:44.320Z,96.15
2018-02-09T21:24:12.587Z,105.10
2018-02-09T21:26:40.846Z,110.65
2018-02-09T21:29:09.109Z,99.90
2018-02-09T21:31:38.130Z,109.30
2018-02-09T21:34:06.404Z,112.45
2018-02-09T21:36:34.659Z,115.18
2018-02-09T21:39:02.917Z,92.82
2018-02-09T21:41:31.952Z,110.40
2018-02-09T21:44:00.224Z,99.80
2018-02-09T21:46:28.481Z,95.47
2018-02-09T21:48:56.742Z,106.45
2018-02-09T21:51:25.764Z,96.07
2018-02-09T21:53:54.036Z,105.43
2018-02-09T21:56:22.282Z,104.00
2018-02-09T21:58:52.233Z,88.47
2018-02-09T22:01:20.494Z,98.80
2018-02-09T22:03:49.522Z,104.15
2018-02-09T22:06:17.784Z,109.20
2018-02-09T22:08:46.050Z,109.55
2018-02-09T22:11:14.317Z,122.55
2018-02-09T22:13:42.682Z,110.65
2018-02-09T22:16:11.701Z,111.35
2018-02-09T22:18:39.964Z,109.95
2018-02-09T22:21:08.222Z,101.78
2018-02-09T22:23:37.307Z,106.95
2018-02-09T22:26:05.507Z,96.18
2018-02-09T22:28:33.779Z,107.57
2018-02-09T22:31:02.033Z,102.72
2018-02-09T22:33:31.052Z,104.90
2018-02-09T22:35:59.327Z,101.85
2018-02-09T22:38:27.578Z,106.90
2018-02-09T22:40:56.609Z,102.10
2018-02-09T22:43:24.870Z,113.40
2018-02-09T22:45:53.140Z,111.80
2018-02-09T22:48:25.498Z,101.25
2018-02-09T22:50:54.564Z,103.22
2018-02-09T22:53:22.813Z,101.87
2018-02-09T22:55:51.092Z,118.35
2018-02-09T22:58:19.357Z,104.38
2018-02-09T23:00:47.617Z,95.65
2018-02-09T23:03:15.882Z,92.32
2018-02-09T23:05:44.918Z,112.05
2018-02-09T23:08:13.947Z,96.20
2018-02-09T23:10:42.218Z,100.72
2018-02-09T23:13:10.484Z,98.35
2018-02-09T23:15:38.755Z,96.30
2018-02-09T23:18:07.016Z,107.35
2018-02-09T23:20:35.278Z,101.60
2018-02-09T23:23:03.538Z,108.45
2018-02-09T23:25:31.797Z,93.30
2018-02-09T23:28:00.068Z,101.30
2018-02-09T23:30:29.101Z,103.72
2018-02-09T23:32:57.349Z,98.72
2018-02-09T23:35:25.634Z,102.68
2018-02-09T23:37:53.895Z,94.95
2018-02-09T23:40:22.906Z,92.35
2018-02-09T23:42:51.175Z,97.22
2018-02-09T23:45:19.430Z,99.28
2018-02-09T23:47:48.461Z,100.25
2018-02-09T23:50:16.729Z,104.30
2018-02-09T23:52:45.121Z,112.97
2018-02-09T23:55:13.388Z,95.38
2018-02-09T23:57:41.663Z,107.53
